NKS985 MUHA-KFLL
Flight info
| Callsign | NKS985 |
|---|---|
| Flight time | 0h 47m |
| Altitude | 29000 |
| Route | MUHA/24 MAXIM BHHIA3 |
| Aircraft | A21N/M-SDE3FGHIRWY/LB1 |
Departure
| Time | 2026-05-03 20:52 |
|---|---|
| Airport | José Martí International Airport (MUHA) |
Arrival
| Time | 2026-05-03 21:40 |
|---|---|
| Airport | Fort Lauderdale Hollywood International Airport (KFLL) |
| Time | Latitude | Longitude | Altitude | Speed | Heading |
|---|---|---|---|---|---|
| 2026-05-03 20:15 | 22.99627 | -82.40631 | 217 ft | 0 kts | 301° |
| 2026-05-03 20:37 | 22.99624 | -82.40624 | 217 ft | 2 kts | 301° |
| 2026-05-03 20:37 | 22.99616 | -82.40610 | 217 ft | 2 kts | 300° |
| 2026-05-03 20:38 | 22.99608 | -82.40596 | 217 ft | 2 kts | 301° |
| 2026-05-03 20:38 | 22.99601 | -82.40582 | 217 ft | 2 kts | 300° |
| 2026-05-03 20:38 | 22.99593 | -82.40569 | 217 ft | 2 kts | 301° |
| 2026-05-03 20:38 | 22.99587 | -82.40558 | 217 ft | 0 kts | 300° |
| 2026-05-03 20:39 | 22.99582 | -82.40545 | 217 ft | 2 kts | 279° |
| 2026-05-03 20:39 | 22.99582 | -82.40529 | 217 ft | 2 kts | 257° |
| 2026-05-03 20:39 | 22.99585 | -82.40518 | 217 ft | 0 kts | 239° |
| 2026-05-03 20:39 | 22.99590 | -82.40511 | 217 ft | 0 kts | 236° |
| 2026-05-03 20:42 | 22.99587 | -82.40517 | 217 ft | 1 kts | 236° |
| 2026-05-03 20:42 | 22.99578 | -82.40530 | 217 ft | 2 kts | 237° |
| 2026-05-03 20:42 | 22.99565 | -82.40552 | 217 ft | 4 kts | 238° |
| 2026-05-03 20:42 | 22.99548 | -82.40581 | 216 ft | 5 kts | 235° |
| 2026-05-03 20:43 | 22.99525 | -82.40615 | 216 ft | 6 kts | 234° |
| 2026-05-03 20:43 | 22.99497 | -82.40656 | 216 ft | 7 kts | 234° |
| 2026-05-03 20:43 | 22.99465 | -82.40704 | 216 ft | 8 kts | 233° |
| 2026-05-03 20:43 | 22.99431 | -82.40756 | 216 ft | 9 kts | 235° |
| 2026-05-03 20:44 | 22.99392 | -82.40816 | 216 ft | 9 kts | 236° |
| 2026-05-03 20:44 | 22.99335 | -82.40834 | 216 ft | 10 kts | 152° |
| 2026-05-03 20:44 | 22.99271 | -82.40788 | 215 ft | 11 kts | 146° |
| 2026-05-03 20:44 | 22.99198 | -82.40800 | 215 ft | 12 kts | 230° |
| 2026-05-03 20:45 | 22.99147 | -82.40874 | 214 ft | 12 kts | 234° |
| 2026-05-03 20:45 | 22.99095 | -82.40951 | 215 ft | 12 kts | 234° |
| 2026-05-03 20:45 | 22.99045 | -82.41028 | 215 ft | 12 kts | 236° |
| 2026-05-03 20:45 | 22.98994 | -82.41105 | 215 ft | 12 kts | 234° |
| 2026-05-03 20:46 | 22.98943 | -82.41183 | 216 ft | 12 kts | 234° |
| 2026-05-03 20:46 | 22.98898 | -82.41251 | 216 ft | 10 kts | 234° |
| 2026-05-03 20:46 | 22.98856 | -82.41314 | 217 ft | 10 kts | 234° |
| 2026-05-03 20:46 | 22.98814 | -82.41378 | 217 ft | 10 kts | 234° |
| 2026-05-03 20:47 | 22.98770 | -82.41443 | 218 ft | 10 kts | 234° |
| 2026-05-03 20:47 | 22.98727 | -82.41508 | 218 ft | 10 kts | 234° |
| 2026-05-03 20:47 | 22.98683 | -82.41573 | 219 ft | 10 kts | 234° |
| 2026-05-03 20:47 | 22.98640 | -82.41638 | 219 ft | 10 kts | 234° |
| 2026-05-03 20:48 | 22.98596 | -82.41704 | 220 ft | 10 kts | 236° |
| 2026-05-03 20:48 | 22.98553 | -82.41769 | 220 ft | 10 kts | 235° |
| 2026-05-03 20:48 | 22.98509 | -82.41836 | 220 ft | 10 kts | 234° |
| 2026-05-03 20:48 | 22.98465 | -82.41902 | 221 ft | 10 kts | 234° |
| 2026-05-03 20:49 | 22.98420 | -82.41970 | 221 ft | 11 kts | 235° |
| 2026-05-03 20:49 | 22.98375 | -82.42039 | 222 ft | 11 kts | 234° |
| 2026-05-03 20:49 | 22.98325 | -82.42114 | 222 ft | 12 kts | 234° |
| 2026-05-03 20:49 | 22.98269 | -82.42198 | 222 ft | 14 kts | 234° |
| 2026-05-03 20:50 | 22.98207 | -82.42291 | 222 ft | 15 kts | 235° |
| 2026-05-03 20:50 | 22.98142 | -82.42390 | 222 ft | 16 kts | 234° |
| 2026-05-03 20:50 | 22.98073 | -82.42495 | 221 ft | 16 kts | 236° |
| 2026-05-03 20:50 | 22.97994 | -82.42566 | 221 ft | 14 kts | 176° |
| 2026-05-03 20:51 | 22.97905 | -82.42508 | 221 ft | 15 kts | 142° |
| 2026-05-03 20:51 | 22.97895 | -82.42448 | 221 ft | 0 kts | 56° |
| 2026-05-03 20:51 | 22.97896 | -82.42447 | 221 ft | 1 kts | 56° |
| 2026-05-03 20:51 | 22.98079 | -82.42172 | 222 ft | 91 kts | 55° |
| 2026-05-03 20:52 | 22.98609 | -82.41377 | 218 ft | 168 kts | 54° |
| 2026-05-03 20:52 | 22.99367 | -82.40244 | 683 ft | 192 kts | 54° |
| 2026-05-03 20:52 | 23.00181 | -82.39030 | 1325 ft | 212 kts | 55° |
| 2026-05-03 20:52 | 23.01106 | -82.37614 | 1617 ft | 246 kts | 56° |
| 2026-05-03 20:53 | 23.02133 | -82.36037 | 1828 ft | 267 kts | 55° |
| 2026-05-03 20:53 | 23.03239 | -82.34363 | 2071 ft | 272 kts | 55° |
| 2026-05-03 20:53 | 23.04346 | -82.32697 | 2310 ft | 273 kts | 54° |
| 2026-05-03 20:53 | 23.05455 | -82.31026 | 2547 ft | 273 kts | 54° |
| 2026-05-03 20:54 | 23.06566 | -82.29353 | 2786 ft | 274 kts | 55° |
| 2026-05-03 20:54 | 23.08776 | -82.26025 | 4261 ft | 270 kts | 55° |
| 2026-05-03 20:54 | 23.09850 | -82.24405 | 5170 ft | 266 kts | 55° |
| 2026-05-03 20:55 | 23.10925 | -82.22781 | 5881 ft | 270 kts | 55° |
| 2026-05-03 20:55 | 23.12028 | -82.21113 | 6588 ft | 275 kts | 55° |
| 2026-05-03 20:55 | 23.13220 | -82.19476 | 7299 ft | 278 kts | 42° |
| 2026-05-03 20:55 | 23.14858 | -82.18420 | 7995 ft | 278 kts | 15° |
| 2026-05-03 20:56 | 23.16759 | -82.18139 | 8710 ft | 275 kts | 354° |
| 2026-05-03 20:56 | 23.18592 | -82.18593 | 9416 ft | 271 kts | 330° |
| 2026-05-03 20:56 | 23.20039 | -82.19822 | 10151 ft | 264 kts | 307° |
| 2026-05-03 20:56 | 23.20986 | -82.21485 | 10867 ft | 259 kts | 290° |
| 2026-05-03 20:57 | 23.21398 | -82.23352 | 11589 ft | 254 kts | 273° |
| 2026-05-03 20:57 | 23.21270 | -82.25219 | 12289 ft | 250 kts | 256° |
| 2026-05-03 20:57 | 23.20637 | -82.26939 | 12955 ft | 249 kts | 240° |
| 2026-05-03 20:57 | 23.19524 | -82.28397 | 13485 ft | 254 kts | 223° |
| 2026-05-03 20:58 | 23.18011 | -82.29464 | 13901 ft | 265 kts | 211° |
| 2026-05-03 20:58 | 23.16347 | -82.30408 | 14346 ft | 272 kts | 211° |
| 2026-05-03 20:58 | 23.14812 | -82.31580 | 14767 ft | 275 kts | 231° |
| 2026-05-03 20:58 | 23.13887 | -82.33393 | 15209 ft | 278 kts | 256° |
| 2026-05-03 20:59 | 23.13821 | -82.35483 | 15641 ft | 284 kts | 281° |
| 2026-05-03 20:59 | 23.14643 | -82.37454 | 16077 ft | 294 kts | 305° |
| 2026-05-03 20:59 | 23.16227 | -82.38912 | 16514 ft | 307 kts | 329° |
| 2026-05-03 20:59 | 23.18298 | -82.39561 | 16952 ft | 320 kts | 353° |
| 2026-05-03 21:00 | 23.20530 | -82.39262 | 17385 ft | 332 kts | 16° |
| 2026-05-03 21:00 | 23.21946 | -82.38519 | 17671 ft | 339 kts | 31° |
| 2026-05-03 21:00 | 23.24318 | -82.36258 | 18261 ft | 348 kts | 43° |
| 2026-05-03 21:00 | 23.26037 | -82.34343 | 18706 ft | 353 kts | 44° |
| 2026-05-03 21:01 | 23.27735 | -82.32407 | 19138 ft | 357 kts | 44° |
| 2026-05-03 21:01 | 23.29433 | -82.30457 | 19572 ft | 360 kts | 44° |
| 2026-05-03 21:01 | 23.31161 | -82.28458 | 19998 ft | 364 kts | 44° |
| 2026-05-03 21:01 | 23.33010 | -82.26555 | 20421 ft | 363 kts | 31° |
| 2026-05-03 21:02 | 23.35235 | -82.25417 | 20846 ft | 354 kts | 8° |
| 2026-05-03 21:02 | 23.37655 | -82.25232 | 21282 ft | 342 kts | 346° |
| 2026-05-03 21:02 | 23.39919 | -82.25825 | 21729 ft | 337 kts | 336° |
| 2026-05-03 21:02 | 23.42161 | -82.26648 | 22171 ft | 338 kts | 334° |
| 2026-05-03 21:03 | 23.44391 | -82.27503 | 22609 ft | 339 kts | 334° |
| 2026-05-03 21:03 | 23.46601 | -82.28346 | 23051 ft | 341 kts | 334° |
| 2026-05-03 21:03 | 23.48860 | -82.29202 | 23501 ft | 342 kts | 334° |
| 2026-05-03 21:03 | 23.51131 | -82.30047 | 23952 ft | 343 kts | 334° |
| 2026-05-03 21:04 | 23.53392 | -82.30874 | 24396 ft | 344 kts | 334° |
| 2026-05-03 21:04 | 23.55643 | -82.31692 | 24810 ft | 345 kts | 334° |
| 2026-05-03 21:04 | 23.57965 | -82.32558 | 24969 ft | 354 kts | 332° |
| 2026-05-03 21:04 | 23.60290 | -82.33557 | 24973 ft | 367 kts | 332° |
| 2026-05-03 21:05 | 23.62777 | -82.34464 | 24977 ft | 384 kts | 336° |
| 2026-05-03 21:05 | 23.65368 | -82.35335 | 24979 ft | 397 kts | 336° |
| 2026-05-03 21:05 | 23.68029 | -82.36221 | 24977 ft | 405 kts | 336° |
| 2026-05-03 21:05 | 23.70754 | -82.37135 | 24975 ft | 407 kts | 336° |
| 2026-05-03 21:06 | 23.73457 | -82.38041 | 24972 ft | 407 kts | 336° |
| 2026-05-03 21:06 | 23.76160 | -82.39044 | 24969 ft | 405 kts | 332° |
| 2026-05-03 21:06 | 23.78744 | -82.40142 | 24966 ft | 402 kts | 332° |
| 2026-05-03 21:06 | 23.81356 | -82.41285 | 24962 ft | 401 kts | 332° |
| 2026-05-03 21:07 | 23.83944 | -82.42429 | 24962 ft | 402 kts | 331° |
| 2026-05-03 21:07 | 23.86545 | -82.43586 | 24961 ft | 402 kts | 331° |
| 2026-05-03 21:07 | 23.89129 | -82.44736 | 24964 ft | 402 kts | 331° |
| 2026-05-03 21:07 | 23.91743 | -82.45892 | 24962 ft | 403 kts | 331° |
| 2026-05-03 21:08 | 23.94314 | -82.47090 | 24964 ft | 400 kts | 328° |
| 2026-05-03 21:08 | 23.96815 | -82.48434 | 24966 ft | 398 kts | 327° |
| 2026-05-03 21:08 | 23.99419 | -82.49505 | 24937 ft | 412 kts | 343° |
| 2026-05-03 21:08 | 24.02367 | -82.49491 | 24956 ft | 432 kts | 6° |
| 2026-05-03 21:09 | 24.05151 | -82.48278 | 24956 ft | 436 kts | 28° |
| 2026-05-03 21:09 | 24.07554 | -82.46295 | 24976 ft | 436 kts | 35° |
| 2026-05-03 21:09 | 24.09883 | -82.44166 | 24970 ft | 434 kts | 36° |
| 2026-05-03 21:09 | 24.12217 | -82.42050 | 24969 ft | 434 kts | 35° |
| 2026-05-03 21:10 | 24.14561 | -82.39985 | 24972 ft | 434 kts | 34° |
| 2026-05-03 21:10 | 24.16945 | -82.37934 | 24971 ft | 434 kts | 33° |
| 2026-05-03 21:10 | 24.19311 | -82.35929 | 24969 ft | 433 kts | 33° |
| 2026-05-03 21:10 | 24.21721 | -82.33903 | 24971 ft | 433 kts | 33° |
| 2026-05-03 21:11 | 24.24113 | -82.31904 | 24971 ft | 434 kts | 33° |
| 2026-05-03 21:11 | 24.26525 | -82.29894 | 24968 ft | 434 kts | 33° |
| 2026-05-03 21:11 | 24.28907 | -82.27911 | 24967 ft | 434 kts | 33° |
| 2026-05-03 21:11 | 24.31326 | -82.25893 | 24968 ft | 434 kts | 33° |
| 2026-05-03 21:12 | 24.33741 | -82.23880 | 24971 ft | 435 kts | 33° |
| 2026-05-03 21:12 | 24.36137 | -82.21883 | 24970 ft | 436 kts | 33° |
| 2026-05-03 21:12 | 24.38561 | -82.19861 | 24968 ft | 436 kts | 33° |
| 2026-05-03 21:12 | 24.40962 | -82.17857 | 24966 ft | 435 kts | 33° |
| 2026-05-03 21:13 | 24.43383 | -82.15835 | 24969 ft | 435 kts | 33° |
| 2026-05-03 21:13 | 24.45777 | -82.13837 | 24967 ft | 436 kts | 33° |
| 2026-05-03 21:13 | 24.48194 | -82.11815 | 24970 ft | 435 kts | 33° |
| 2026-05-03 21:13 | 24.50588 | -82.09812 | 24971 ft | 435 kts | 32° |
| 2026-05-03 21:14 | 24.53017 | -82.07781 | 24968 ft | 435 kts | 33° |
| 2026-05-03 21:14 | 24.55412 | -82.05779 | 24970 ft | 436 kts | 33° |
| 2026-05-03 21:14 | 24.57840 | -82.03748 | 24972 ft | 436 kts | 33° |
| 2026-05-03 21:14 | 24.60244 | -82.01733 | 24973 ft | 436 kts | 33° |
| 2026-05-03 21:15 | 24.62650 | -81.99714 | 24975 ft | 436 kts | 33° |
| 2026-05-03 21:15 | 24.65058 | -81.97695 | 24978 ft | 435 kts | 33° |
| 2026-05-03 21:15 | 24.67465 | -81.95673 | 24979 ft | 435 kts | 33° |
| 2026-05-03 21:15 | 24.69857 | -81.93668 | 24977 ft | 436 kts | 33° |
| 2026-05-03 21:16 | 24.72292 | -81.91622 | 24980 ft | 436 kts | 33° |
| 2026-05-03 21:16 | 24.74697 | -81.89602 | 24986 ft | 443 kts | 33° |
| 2026-05-03 21:16 | 24.77205 | -81.87498 | 24984 ft | 456 kts | 33° |
| 2026-05-03 21:16 | 24.79740 | -81.85371 | 24983 ft | 468 kts | 33° |
| 2026-05-03 21:17 | 24.82356 | -81.83173 | 24981 ft | 479 kts | 33° |
| 2026-05-03 21:17 | 24.84138 | -81.81672 | 24984 ft | 486 kts | 33° |
| 2026-05-03 21:17 | 24.87781 | -81.78604 | 24981 ft | 497 kts | 33° |
| 2026-05-03 21:17 | 24.90517 | -81.76294 | 24987 ft | 500 kts | 33° |
| 2026-05-03 21:18 | 24.93290 | -81.73952 | 24985 ft | 500 kts | 33° |
| 2026-05-03 21:18 | 24.96027 | -81.71639 | 24983 ft | 500 kts | 33° |
| 2026-05-03 21:18 | 24.98816 | -81.69281 | 24985 ft | 500 kts | 33° |
| 2026-05-03 21:18 | 25.01556 | -81.66966 | 24983 ft | 499 kts | 33° |
| 2026-05-03 21:19 | 25.04305 | -81.64639 | 24821 ft | 494 kts | 33° |
| 2026-05-03 21:19 | 25.07005 | -81.62353 | 24135 ft | 494 kts | 33° |
| 2026-05-03 21:19 | 25.09755 | -81.60027 | 23148 ft | 498 kts | 33° |
| 2026-05-03 21:19 | 25.12485 | -81.57719 | 22217 ft | 500 kts | 33° |
| 2026-05-03 21:20 | 25.15241 | -81.55386 | 21352 ft | 500 kts | 34° |
| 2026-05-03 21:20 | 25.17985 | -81.53059 | 20687 ft | 498 kts | 34° |
| 2026-05-03 21:20 | 25.20755 | -81.50711 | 20107 ft | 499 kts | 34° |
| 2026-05-03 21:20 | 25.23496 | -81.48383 | 19569 ft | 500 kts | 34° |
| 2026-05-03 21:21 | 25.26235 | -81.46053 | 19073 ft | 497 kts | 34° |
| 2026-05-03 21:21 | 25.28965 | -81.43730 | 18456 ft | 490 kts | 34° |
| 2026-05-03 21:21 | 25.31615 | -81.41473 | 17850 ft | 482 kts | 34° |
| 2026-05-03 21:21 | 25.34273 | -81.39210 | 17263 ft | 474 kts | 34° |
| 2026-05-03 21:22 | 25.36831 | -81.37032 | 16724 ft | 466 kts | 34° |
| 2026-05-03 21:22 | 25.39391 | -81.34849 | 16196 ft | 458 kts | 35° |
| 2026-05-03 21:22 | 25.41880 | -81.32729 | 15718 ft | 448 kts | 35° |
| 2026-05-03 21:22 | 25.44286 | -81.30675 | 15308 ft | 423 kts | 35° |
| 2026-05-03 21:23 | 25.46546 | -81.28743 | 14909 ft | 398 kts | 35° |
| 2026-05-03 21:23 | 25.48690 | -81.26908 | 14484 ft | 384 kts | 35° |
| 2026-05-03 21:23 | 25.50800 | -81.25108 | 14052 ft | 379 kts | 35° |
| 2026-05-03 21:23 | 25.52878 | -81.23333 | 13715 ft | 377 kts | 35° |
| 2026-05-03 21:24 | 25.54942 | -81.21573 | 13385 ft | 377 kts | 35° |
| 2026-05-03 21:24 | 25.57023 | -81.19794 | 13046 ft | 376 kts | 36° |
| 2026-05-03 21:24 | 25.59080 | -81.18033 | 12560 ft | 374 kts | 35° |
| 2026-05-03 21:24 | 25.61145 | -81.16266 | 11974 ft | 375 kts | 36° |
| 2026-05-03 21:25 | 25.63189 | -81.14518 | 11528 ft | 372 kts | 36° |
| 2026-05-03 21:25 | 25.65197 | -81.12794 | 11042 ft | 358 kts | 36° |
| 2026-05-03 21:25 | 25.67151 | -81.11117 | 10576 ft | 350 kts | 36° |
| 2026-05-03 21:25 | 25.69051 | -81.09488 | 10299 ft | 346 kts | 36° |
| 2026-05-03 21:26 | 25.70957 | -81.07853 | 10152 ft | 346 kts | 36° |
| 2026-05-03 21:26 | 25.72860 | -81.06217 | 10007 ft | 346 kts | 36° |
| 2026-05-03 21:26 | 25.74755 | -81.04591 | 9716 ft | 346 kts | 36° |
| 2026-05-03 21:26 | 25.76659 | -81.02956 | 9306 ft | 342 kts | 36° |
| 2026-05-03 21:27 | 25.78529 | -81.01349 | 8934 ft | 339 kts | 36° |
| 2026-05-03 21:27 | 25.80376 | -80.99760 | 8543 ft | 336 kts | 36° |
| 2026-05-03 21:27 | 25.82220 | -80.98174 | 8171 ft | 334 kts | 36° |
| 2026-05-03 21:27 | 25.84058 | -80.96593 | 7748 ft | 332 kts | 36° |
| 2026-05-03 21:28 | 25.85875 | -80.95029 | 7353 ft | 329 kts | 36° |
| 2026-05-03 21:28 | 25.87698 | -80.93556 | 7014 ft | 325 kts | 31° |
| 2026-05-03 21:28 | 25.89640 | -80.92276 | 6962 ft | 324 kts | 27° |
| 2026-05-03 21:28 | 25.91615 | -80.91064 | 6962 ft | 325 kts | 27° |
| 2026-05-03 21:29 | 25.93607 | -80.89854 | 6961 ft | 326 kts | 27° |
| 2026-05-03 21:29 | 25.95620 | -80.88627 | 6961 ft | 326 kts | 27° |
| 2026-05-03 21:29 | 25.97597 | -80.87420 | 6961 ft | 326 kts | 27° |
| 2026-05-03 21:29 | 25.99584 | -80.86198 | 6970 ft | 327 kts | 28° |
| 2026-05-03 21:30 | 26.01356 | -80.84605 | 6944 ft | 328 kts | 52° |
| 2026-05-03 21:30 | 26.02289 | -80.82336 | 6957 ft | 328 kts | 78° |
| 2026-05-03 21:30 | 26.02601 | -80.79814 | 6963 ft | 328 kts | 85° |
| 2026-05-03 21:30 | 26.02803 | -80.77300 | 6956 ft | 329 kts | 85° |
| 2026-05-03 21:31 | 26.03054 | -80.74777 | 6963 ft | 328 kts | 84° |
| 2026-05-03 21:31 | 26.03366 | -80.72262 | 6947 ft | 327 kts | 82° |
| 2026-05-03 21:31 | 26.03716 | -80.69784 | 6937 ft | 327 kts | 81° |
| 2026-05-03 21:31 | 26.04092 | -80.67296 | 6930 ft | 320 kts | 81° |
| 2026-05-03 21:32 | 26.04464 | -80.64920 | 6922 ft | 303 kts | 81° |
| 2026-05-03 21:32 | 26.04819 | -80.62667 | 6697 ft | 295 kts | 81° |
| 2026-05-03 21:32 | 26.05173 | -80.60426 | 6400 ft | 291 kts | 81° |
| 2026-05-03 21:32 | 26.05516 | -80.58253 | 6106 ft | 286 kts | 81° |
| 2026-05-03 21:33 | 26.05856 | -80.56088 | 5820 ft | 282 kts | 80° |
| 2026-05-03 21:33 | 26.06186 | -80.53985 | 5412 ft | 274 kts | 80° |
| 2026-05-03 21:33 | 26.06506 | -80.51941 | 5036 ft | 263 kts | 81° |
| 2026-05-03 21:33 | 26.06712 | -80.49910 | 4959 ft | 263 kts | 86° |
| 2026-05-03 21:34 | 26.06751 | -80.47933 | 4812 ft | 254 kts | 90° |
| 2026-05-03 21:34 | 26.06742 | -80.45991 | 4572 ft | 247 kts | 90° |
| 2026-05-03 21:34 | 26.06728 | -80.44144 | 4400 ft | 230 kts | 90° |
| 2026-05-03 21:34 | 26.06716 | -80.42437 | 4254 ft | 214 kts | 90° |
| 2026-05-03 21:35 | 26.06708 | -80.40845 | 4115 ft | 202 kts | 90° |
| 2026-05-03 21:35 | 26.06700 | -80.39290 | 4140 ft | 202 kts | 89° |
| 2026-05-03 21:35 | 26.06705 | -80.37714 | 4074 ft | 200 kts | 89° |
| 2026-05-03 21:35 | 26.06719 | -80.36188 | 3979 ft | 200 kts | 89° |
| 2026-05-03 21:36 | 26.06723 | -80.34636 | 3972 ft | 201 kts | 89° |
| 2026-05-03 21:36 | 26.06716 | -80.33063 | 3731 ft | 205 kts | 90° |
| 2026-05-03 21:36 | 26.06703 | -80.31439 | 3083 ft | 219 kts | 90° |
| 2026-05-03 21:36 | 26.06687 | -80.29770 | 2749 ft | 210 kts | 89° |
| 2026-05-03 21:37 | 26.06671 | -80.28201 | 2365 ft | 197 kts | 88° |
| 2026-05-03 21:37 | 26.06659 | -80.26702 | 1948 ft | 190 kts | 88° |
| 2026-05-03 21:37 | 26.06649 | -80.25269 | 1628 ft | 181 kts | 89° |
| 2026-05-03 21:37 | 26.06640 | -80.23872 | 1397 ft | 180 kts | 89° |
| 2026-05-03 21:38 | 26.06630 | -80.22482 | 1166 ft | 177 kts | 88° |
| 2026-05-03 21:38 | 26.06621 | -80.21162 | 932 ft | 166 kts | 89° |
| 2026-05-03 21:38 | 26.06613 | -80.19940 | 720 ft | 153 kts | 88° |
| 2026-05-03 21:38 | 26.06605 | -80.18815 | 524 ft | 137 kts | 88° |
| 2026-05-03 21:39 | 26.06598 | -80.17772 | 361 ft | 135 kts | 89° |
| 2026-05-03 21:39 | 26.06586 | -80.16727 | 204 ft | 135 kts | 88° |
| 2026-05-03 21:39 | 26.06586 | -80.15681 | 29 ft | 134 kts | 88° |
| 2026-05-03 21:39 | 26.06586 | -80.14779 | 13 ft | 80 kts | 91° |
| 2026-05-03 21:40 | 26.06582 | -80.14432 | 13 ft | 31 kts | 90° |
| 2026-05-03 21:40 | 26.06617 | -80.14251 | 13 ft | 14 kts | 57° |
| 2026-05-03 21:40 | 26.06672 | -80.14234 | 13 ft | 9 kts | 322° |
| 2026-05-03 21:40 | 26.06689 | -80.14306 | 13 ft | 10 kts | 272° |
| 2026-05-03 21:41 | 26.06691 | -80.14388 | 13 ft | 11 kts | 270° |
| 2026-05-03 21:41 | 26.06691 | -80.14456 | 13 ft | 8 kts | 269° |
| 2026-05-03 21:41 | 26.06691 | -80.14524 | 13 ft | 9 kts | 271° |
| 2026-05-03 21:41 | 26.06692 | -80.14600 | 13 ft | 10 kts | 269° |
| 2026-05-03 21:42 | 26.06692 | -80.14665 | 13 ft | 6 kts | 270° |
| 2026-05-03 21:42 | 26.06692 | -80.14713 | 13 ft | 5 kts | 270° |
| 2026-05-03 21:42 | 26.06693 | -80.14757 | 13 ft | 4 kts | 270° |
| 2026-05-03 21:42 | 26.06693 | -80.14784 | 13 ft | 4 kts | 270° |
| 2026-05-03 21:43 | 26.06693 | -80.14821 | 13 ft | 5 kts | 270° |
| 2026-05-03 21:43 | 26.06693 | -80.14865 | 13 ft | 6 kts | 271° |
| 2026-05-03 21:43 | 26.06694 | -80.14889 | 13 ft | 3 kts | 271° |
| 2026-05-03 21:43 | 26.06694 | -80.14934 | 13 ft | 9 kts | 270° |
| 2026-05-03 21:44 | 26.06694 | -80.15021 | 13 ft | 12 kts | 270° |
| 2026-05-03 21:44 | 26.06696 | -80.15113 | 13 ft | 9 kts | 294° |
| 2026-05-03 21:44 | 26.06760 | -80.15138 | 13 ft | 10 kts | 359° |
| 2026-05-03 21:44 | 26.06834 | -80.15131 | 13 ft | 10 kts | 2° |
| 2026-05-03 21:45 | 26.06912 | -80.15130 | 13 ft | 11 kts | 0° |
| 2026-05-03 21:45 | 26.06994 | -80.15130 | 13 ft | 12 kts | 360° |
| 2026-05-03 21:45 | 26.07070 | -80.15103 | 13 ft | 11 kts | 44° |
| 2026-05-03 21:45 | 26.07130 | -80.15037 | 13 ft | 12 kts | 46° |
| 2026-05-03 21:46 | 26.07168 | -80.14968 | 13 ft | 8 kts | 93° |
| 2026-05-03 21:46 | 26.07153 | -80.14933 | 13 ft | 3 kts | 126° |